Time;durP1;ratioP1;P1;durP2;ratioP2;P2;SDS_P1;SDS_P2;PMS_P1;PMS_P2;Temp;Humidity;BMP_temperature;BMP_pressure;BME280_temperature;BME280_humidity;BME280_pressure;Samples;Min_cycle;Max_cycle;Signal;HPM_P1;HPM_P2
2021/05/08 00:01:49;;;;;;;7.80;6.93;;;;;;;;;;5028544;28;20385;-88
2021/05/08 00:04:28;;;;;;;7.88;7.10;;;;;;;;;;5021895;28;20429;-89
2021/05/08 00:06:56;;;;;;;8.02;7.00;;;;;;;;;;5021068;28;20892;-89
2021/05/08 00:09:32;;;;;;;7.70;6.60;;;;;;;;;;5021093;28;20447;-88
2021/05/08 00:11:58;;;;;;;7.65;6.85;;;;;;;;;;5018632;28;20806;-89
2021/05/08 00:14:25;;;;;;;8.13;7.32;;;;;;;;;;5017468;28;20393;-88
2021/05/08 00:16:52;;;;;;;8.02;7.25;;;;;;;;;;5019516;28;20465;-88
2021/05/08 00:19:37;;;;;;;7.70;6.95;;;;;;;;;;5019027;28;20740;-88
2021/05/08 00:22:03;;;;;;;8.10;7.30;;;;;;;;;;5018825;28;20898;-88
2021/05/08 00:24:29;;;;;;;7.70;6.93;;;;;;;;;;5008548;28;20375;-87
2021/05/08 00:26:55;;;;;;;8.07;7.30;;;;;;;;;;5009655;28;20406;-88
2021/05/08 00:29:21;;;;;;;6.90;6.30;;;;;;;;;;5008358;28;20418;-87
2021/05/08 00:31:47;;;;;;;7.40;6.80;;;;;;;;;;5008484;28;20436;-87
2021/05/08 00:34:13;;;;;;;6.80;6.20;;;;;;;;;;5008733;28;20410;-87
2021/05/08 00:36:38;;;;;;;7.25;6.55;;;;;;;;;;5008720;28;20383;-88
2021/05/08 00:39:06;;;;;;;9.02;8.13;;;;;;;;;;5008419;28;20389;-88
2021/05/08 00:41:32;;;;;;;8.38;7.57;;;;;;;;;;5008430;28;20426;-89
2021/05/08 00:43:58;;;;;;;10.15;8.40;;;;;;;;;;5008358;28;20387;-89
2021/05/08 00:46:24;;;;;;;9.07;8.18;;;;;;;;;;5008359;28;20375;-89
2021/05/08 00:48:51;;;;;;;8.70;7.80;;;;;;;;;;5008361;28;20383;-88
2021/05/08 00:51:18;;;;;;;8.55;7.75;;;;;;;;;;5008474;28;20375;-90
2021/05/08 00:53:44;;;;;;;8.60;7.80;;;;;;;;;;5008480;28;20813;-89
2021/05/08 00:56:10;;;;;;;7.68;6.97;;;;;;;;;;5008367;28;20419;-89
2021/05/08 00:58:36;;;;;;;8.40;7.67;;;;;;;;;;5008419;28;20406;-89
2021/05/08 01:01:02;;;;;;;7.10;6.43;;;;;;;;;;5008617;28;20968;-88
2021/05/08 01:03:29;;;;;;;7.50;6.75;;;;;;;;;;5008184;28;20376;-89
2021/05/08 01:05:54;;;;;;;9.48;7.45;;;;;;;;;;5008636;28;20441;-89
2021/05/08 01:08:21;;;;;;;8.20;7.33;;;;;;;;;;5009401;28;20481;-90
2021/05/08 01:10:47;;;;;;;8.80;7.90;;;;;;;;;;5012340;28;20384;-88
2021/05/08 01:13:13;;;;;;;8.90;8.00;;;;;;;;;;5012152;28;20407;-89
2021/05/08 01:15:40;;;;;;;9.50;7.85;;;;;;;;;;5011963;28;20923;-88
2021/05/08 01:18:06;;;;;;;7.95;6.90;;;;;;;;;;5012345;28;20394;-89
2021/05/08 01:20:32;;;;;;;7.70;7.00;;;;;;;;;;5012352;28;20371;-88
2021/05/08 01:22:58;;;;;;;8.32;7.53;;;;;;;;;;5012333;28;20386;-88
2021/05/08 01:25:26;;;;;;;8.03;7.23;;;;;;;;;;5012026;28;20379;-88
2021/05/08 01:27:53;;;;;;;8.10;7.30;;;;;;;;;;5011489;28;20390;-88
2021/05/08 01:30:20;;;;;;;7.15;6.55;;;;;;;;;;5011658;28;20391;-88
2021/05/08 01:32:46;;;;;;;8.20;7.40;;;;;;;;;;5011348;28;20410;-88
2021/05/08 01:35:13;;;;;;;8.48;7.68;;;;;;;;;;5011534;28;20387;-88
2021/05/08 01:37:39;;;;;;;8.05;7.25;;;;;;;;;;5011528;28;20387;-89
2021/05/08 01:40:10;;;;;;;8.68;7.88;;;;;;;;;;5011388;28;20889;-88
2021/05/08 01:42:36;;;;;;;9.07;7.60;;;;;;;;;;5011728;28;20391;-88
2021/05/08 01:45:12;;;;;;;8.35;7.55;;;;;;;;;;5011043;28;20379;-88
2021/05/08 01:47:39;;;;;;;9.13;7.43;;;;;;;;;;5011607;28;20379;-88
2021/05/08 01:50:05;;;;;;;8.38;7.53;;;;;;;;;;5012992;28;20482;-89
2021/05/08 01:52:31;;;;;;;8.73;7.82;;;;;;;;;;5011483;28;20403;-89
2021/05/08 01:54:57;;;;;;;8.55;7.75;;;;;;;;;;5011641;28;20936;-88
2021/05/08 01:57:23;;;;;;;7.75;7.05;;;;;;;;;;5011390;28;20414;-88
2021/05/08 01:59:49;;;;;;;9.43;7.93;;;;;;;;;;5010882;28;20434;-87
2021/05/08 02:02:15;;;;;;;10.10;8.35;;;;;;;;;;5010793;28;21151;-88
2021/05/08 02:04:41;;;;;;;9.27;8.38;;;;;;;;;;5011060;28;20877;-88
2021/05/08 02:07:07;;;;;;;10.45;9.02;;;;;;;;;;5012465;28;20394;-88
2021/05/08 02:09:33;;;;;;;10.23;9.05;;;;;;;;;;5011397;28;20392;-88
2021/05/08 02:11:59;;;;;;;9.90;8.90;;;;;;;;;;5011222;28;20760;-88
2021/05/08 02:14:25;;;;;;;10.52;9.35;;;;;;;;;;5011128;28;20383;-89
2021/05/08 02:16:51;;;;;;;11.45;9.18;;;;;;;;;;5010928;28;20387;-89
2021/05/08 02:19:17;;;;;;;12.68;9.63;;;;;;;;;;5010432;28;20383;-89
2021/05/08 02:21:44;;;;;;;10.70;9.57;;;;;;;;;;5010601;28;20411;-89
2021/05/08 02:24:10;;;;;;;10.00;9.00;;;;;;;;;;5011089;28;20391;-89
2021/05/08 02:26:36;;;;;;;10.20;9.30;;;;;;;;;;5010892;28;20401;-88
2021/05/08 02:29:02;;;;;;;9.45;8.52;;;;;;;;;;5010788;28;20526;-89
2021/05/08 02:31:28;;;;;;;9.77;8.70;;;;;;;;;;5010862;28;20478;-88
2021/05/08 02:33:54;;;;;;;9.65;8.55;;;;;;;;;;5010823;28;20525;-90
2021/05/08 02:36:20;;;;;;;10.15;9.05;;;;;;;;;;4994850;28;20384;-88
2021/05/08 02:38:46;;;;;;;9.95;9.05;;;;;;;;;;5010446;28;20375;-90
2021/05/08 02:41:12;;;;;;;9.50;8.52;;;;;;;;;;5010806;28;20384;-89
2021/05/08 02:43:38;;;;;;;11.57;9.47;;;;;;;;;;5010716;28;20383;-89
2021/05/08 02:46:04;;;;;;;10.07;9.00;;;;;;;;;;5010580;28;20395;-90
2021/05/08 02:48:30;;;;;;;10.10;9.10;;;;;;;;;;5010555;28;20525;-90
2021/05/08 02:50:56;;;;;;;11.50;9.52;;;;;;;;;;5010652;28;20387;-89
2021/05/08 02:53:22;;;;;;;10.82;9.73;;;;;;;;;;5010351;28;20410;-89
2021/05/08 02:55:48;;;;;;;10.10;9.20;;;;;;;;;;5010120;28;20806;-89
2021/05/08 02:58:14;;;;;;;9.75;8.75;;;;;;;;;;5010605;28;20376;-89
2021/05/08 03:00:40;;;;;;;11.80;9.80;;;;;;;;;;5010693;28;20375;-89
2021/05/08 03:03:06;;;;;;;10.38;9.40;;;;;;;;;;5010313;28;20383;-90
2021/05/08 03:05:32;;;;;;;10.65;9.65;;;;;;;;;;5010698;28;20403;-89
2021/05/08 03:07:58;;;;;;;11.25;9.65;;;;;;;;;;5010028;28;20882;-88
2021/05/08 03:10:24;;;;;;;11.63;10.02;;;;;;;;;;5009688;28;20387;-90
2021/05/08 03:12:50;;;;;;;10.60;9.60;;;;;;;;;;5009980;28;20403;-89
2021/05/08 03:15:16;;;;;;;12.32;9.98;;;;;;;;;;5009770;28;20402;-90
2021/05/08 03:17:42;;;;;;;10.52;9.43;;;;;;;;;;5010032;28;20391;-89
2021/05/08 03:20:09;;;;;;;10.43;9.30;;;;;;;;;;5009784;28;20877;-89
2021/05/08 03:22:35;;;;;;;10.40;9.40;;;;;;;;;;5009735;28;20371;-89
2021/05/08 03:25:01;;;;;;;9.98;9.00;;;;;;;;;;5009902;28;20427;-88
2021/05/08 03:27:27;;;;;;;9.98;8.85;;;;;;;;;;5010511;28;20426;-89
2021/05/08 03:29:53;;;;;;;10.63;9.50;;;;;;;;;;5009907;28;20379;-89
2021/05/08 03:32:19;;;;;;;11.48;10.40;;;;;;;;;;5009201;28;20403;-89
2021/05/08 03:34:45;;;;;;;11.20;10.10;;;;;;;;;;5009691;28;20429;-90
2021/05/08 03:37:11;;;;;;;11.27;9.80;;;;;;;;;;5009876;28;20383;-89
2021/05/08 03:39:37;;;;;;;10.30;9.27;;;;;;;;;;5009247;28;20402;-91
2021/05/08 03:42:03;;;;;;;10.70;8.93;;;;;;;;;;5009653;28;20451;-88
2021/05/08 03:44:29;;;;;;;10.63;9.52;;;;;;;;;;5010795;28;20861;-89
2021/05/08 03:46:55;;;;;;;9.13;8.20;;;;;;;;;;5009399;28;20442;-89
2021/05/08 03:49:21;;;;;;;10.18;9.13;;;;;;;;;;5009459;28;20371;-89
2021/05/08 03:51:47;;;;;;;10.95;9.43;;;;;;;;;;5009426;28;20439;-90
2021/05/08 03:54:13;;;;;;;9.77;8.77;;;;;;;;;;5009452;28;20375;-89
2021/05/08 03:56:39;;;;;;;10.75;9.13;;;;;;;;;;5009446;28;20375;-90
2021/05/08 03:59:05;;;;;;;9.45;8.50;;;;;;;;;;5009396;28;20478;-89
2021/05/08 04:01:31;;;;;;;9.97;8.97;;;;;;;;;;5009231;28;20387;-90
2021/05/08 04:03:57;;;;;;;9.15;8.30;;;;;;;;;;5009223;28;20375;-89
2021/05/08 04:06:23;;;;;;;9.75;8.55;;;;;;;;;;5009329;28;20404;-88
2021/05/08 04:08:49;;;;;;;9.23;8.32;;;;;;;;;;5008438;28;20391;-89
2021/05/08 04:11:15;;;;;;;9.60;8.60;;;;;;;;;;5009272;28;20383;-89
2021/05/08 04:13:41;;;;;;;9.57;8.60;;;;;;;;;;5008988;28;20981;-88
2021/05/08 04:16:07;;;;;;;10.98;9.48;;;;;;;;;;5009059;28;20380;-88
2021/05/08 04:18:33;;;;;;;11.63;10.52;;;;;;;;;;5009303;28;20395;-88
2021/05/08 04:20:59;;;;;;;13.60;12.15;;;;;;;;;;5008686;28;20383;-89
2021/05/08 04:23:25;;;;;;;14.73;12.90;;;;;;;;;;5008611;28;20387;-89
2021/05/08 04:25:51;;;;;;;12.65;11.32;;;;;;;;;;5008960;28;20958;-88
2021/05/08 04:28:17;;;;;;;10.20;9.20;;;;;;;;;;5008737;28;20462;-89
2021/05/08 04:30:43;;;;;;;11.55;10.02;;;;;;;;;;5009126;28;20715;-89
2021/05/08 04:33:09;;;;;;;12.15;10.50;;;;;;;;;;5008578;28;20407;-88
2021/05/08 04:35:35;;;;;;;11.97;10.43;;;;;;;;;;5008437;28;20913;-88
2021/05/08 04:38:02;;;;;;;11.95;10.65;;;;;;;;;;5008529;28;20478;-89
2021/05/08 04:40:28;;;;;;;12.68;11.10;;;;;;;;;;5008360;28;20379;-89
2021/05/08 04:42:54;;;;;;;13.52;11.13;;;;;;;;;;5007457;28;20438;-88
2021/05/08 04:45:20;;;;;;;233.80;42.30;;;;;;;;;;5008429;28;20447;-89
2021/05/08 04:47:46;;;;;;;23.70;12.10;;;;;;;;;;5008382;28;20383;-89
2021/05/08 04:50:12;;;;;;;10.63;9.63;;;;;;;;;;5008419;28;20438;-88
2021/05/08 04:52:38;;;;;;;14.20;10.32;;;;;;;;;;5007925;28;20410;-89
2021/05/08 04:55:05;;;;;;;9.90;8.95;;;;;;;;;;5008063;28;20398;-89
2021/05/08 04:57:30;;;;;;;8.45;7.55;;;;;;;;;;5008520;28;20395;-89
2021/05/08 04:59:56;;;;;;;12.13;7.78;;;;;;;;;;5008553;28;20396;-88
2021/05/08 05:02:22;;;;;;;8.90;6.50;;;;;;;;;;5008158;28;20462;-88
2021/05/08 05:04:48;;;;;;;22.73;14.75;;;;;;;;;;5008193;28;20384;-89
2021/05/08 05:07:14;;;;;;;17.95;12.75;;;;;;;;;;5008041;28;20434;-89
2021/05/08 05:09:40;;;;;;;37.67;30.05;;;;;;;;;;5008442;28;20391;-89
2021/05/08 05:12:06;;;;;;;23.70;20.77;;;;;;;;;;5008032;28;20811;-89
2021/05/08 05:14:32;;;;;;;13.23;11.07;;;;;;;;;;5008324;28;20885;-89
2021/05/08 05:16:58;;;;;;;7.93;6.35;;;;;;;;;;5007815;28;20383;-89
2021/05/08 05:19:24;;;;;;;6.05;5.40;;;;;;;;;;5008162;28;20505;-89
2021/05/08 05:21:50;;;;;;;6.72;5.65;;;;;;;;;;5007834;28;20422;-88
2021/05/08 05:24:16;;;;;;;6.43;5.05;;;;;;;;;;5007822;28;20387;-89
2021/05/08 05:26:42;;;;;;;5.93;4.70;;;;;;;;;;5007983;28;20390;-89
2021/05/08 05:29:10;;;;;;;5.07;4.57;;;;;;;;;;5007677;28;20383;-89
2021/05/08 05:31:36;;;;;;;7.82;4.63;;;;;;;;;;5007721;28;20387;-89
2021/05/08 05:34:02;;;;;;;6.15;5.13;;;;;;;;;;5008502;28;20909;-89
2021/05/08 05:36:28;;;;;;;6.90;4.68;;;;;;;;;;5007984;28;20383;-90
2021/05/08 05:38:54;;;;;;;7.03;5.20;;;;;;;;;;5007799;28;20452;-90
2021/05/08 05:41:20;;;;;;;7.77;5.23;;;;;;;;;;5008142;28;20425;-90
2021/05/08 05:43:46;;;;;;;6.75;5.05;;;;;;;;;;5008083;28;20379;-90
2021/05/08 05:46:13;;;;;;;6.55;4.88;;;;;;;;;;5007875;28;20383;-89
2021/05/08 05:48:39;;;;;;;6.50;4.88;;;;;;;;;;5008105;28;20387;-89
2021/05/08 05:51:05;;;;;;;10.52;5.20;;;;;;;;;;5007649;28;20394;-90
2021/05/08 05:53:31;;;;;;;7.20;4.63;;;;;;;;;;5008385;28;20927;-90
2021/05/08 05:55:57;;;;;;;6.53;5.15;;;;;;;;;;5011262;28;20375;-90
2021/05/08 05:58:23;;;;;;;6.53;5.00;;;;;;;;;;5011597;28;20474;-88
2021/05/08 06:00:49;;;;;;;6.40;4.60;;;;;;;;;;5011340;28;20372;-90
2021/05/08 06:03:15;;;;;;;6.95;4.40;;;;;;;;;;5011365;28;20414;-90
2021/05/08 06:05:41;;;;;;;6.47;4.50;;;;;;;;;;5011170;28;20426;-89
2021/05/08 06:08:10;;;;;;;6.38;4.40;;;;;;;;;;5011348;28;20395;-90
2021/05/08 06:10:36;;;;;;;7.40;4.47;;;;;;;;;;5011115;28;20800;-90
2021/05/08 06:13:03;;;;;;;6.75;4.35;;;;;;;;;;5011290;28;20403;-90
2021/05/08 06:15:29;;;;;;;8.18;4.38;;;;;;;;;;5011503;28;20380;-90
2021/05/08 06:17:56;;;;;;;6.68;4.20;;;;;;;;;;5011412;28;20881;-90
2021/05/08 06:20:22;;;;;;;6.40;3.70;;;;;;;;;;5011169;28;20367;-91
2021/05/08 06:22:48;;;;;;;6.90;4.00;;;;;;;;;;5010790;28;20444;-91
2021/05/08 06:25:15;;;;;;;5.77;3.60;;;;;;;;;;5011169;28;20876;-90
2021/05/08 06:27:41;;;;;;;8.38;3.97;;;;;;;;;;5011022;28;20418;-90
2021/05/08 06:30:07;;;;;;;6.53;3.78;;;;;;;;;;5010927;28;20862;-88
2021/05/08 06:32:33;;;;;;;5.33;3.97;;;;;;;;;;5010532;28;20435;-89
2021/05/08 06:34:59;;;;;;;7.00;3.85;;;;;;;;;;5010572;28;20434;-90
2021/05/08 06:37:25;;;;;;;6.60;3.75;;;;;;;;;;5010711;28;20768;-90
2021/05/08 06:39:51;;;;;;;6.93;3.80;;;;;;;;;;5010830;28;20437;-88
2021/05/08 06:42:17;;;;;;;5.45;3.63;;;;;;;;;;5010824;28;20379;-90
2021/05/08 06:44:43;;;;;;;7.25;3.45;;;;;;;;;;5010672;28;20449;-90
2021/05/08 06:47:14;;;;;;;10.27;3.50;;;;;;;;;;5010221;28;20383;-89
2021/05/08 06:49:41;;;;;;;7.05;3.50;;;;;;;;;;5010414;28;20383;-90
2021/05/08 06:52:08;;;;;;;6.65;3.30;;;;;;;;;;5010254;28;20399;-90
2021/05/08 06:54:34;;;;;;;7.63;3.60;;;;;;;;;;5010709;28;20395;-90
2021/05/08 06:57:00;;;;;;;7.88;3.53;;;;;;;;;;5010163;28;20398;-91
2021/05/08 06:59:26;;;;;;;7.63;3.30;;;;;;;;;;5010343;28;20388;-89
2021/05/08 07:01:53;;;;;;;8.77;3.53;;;;;;;;;;5010200;28;20818;-90
2021/05/08 07:04:19;;;;;;;7.70;3.40;;;;;;;;;;5010488;28;20383;-89
2021/05/08 07:06:45;;;;;;;7.85;3.55;;;;;;;;;;5009677;28;20383;-91
2021/05/08 07:09:11;;;;;;;12.98;3.70;;;;;;;;;;5010329;28;20383;-90
2021/05/08 07:11:37;;;;;;;9.85;3.75;;;;;;;;;;5010141;28;20891;-90
2021/05/08 07:14:03;;;;;;;10.00;3.85;;;;;;;;;;5010559;28;20375;-90
2021/05/08 07:16:29;;;;;;;8.70;3.60;;;;;;;;;;5010186;28;20395;-91
2021/05/08 07:18:55;;;;;;;8.68;3.90;;;;;;;;;;5010237;28;20862;-90
2021/05/08 07:21:21;;;;;;;10.43;3.85;;;;;;;;;;5009575;28;20375;-91
2021/05/08 07:23:47;;;;;;;12.63;3.97;;;;;;;;;;5009808;28;20457;-90
2021/05/08 07:26:13;;;;;;;10.55;3.50;;;;;;;;;;5009627;28;20407;-86
2021/05/08 07:28:39;;;;;;;10.10;3.30;;;;;;;;;;5010758;28;20442;-87
2021/05/08 07:31:05;;;;;;;10.93;3.83;;;;;;;;;;5009423;28;20383;-86
2021/05/08 07:33:31;;;;;;;13.68;4.30;;;;;;;;;;5016629;28;20401;-89
2021/05/08 07:35:57;;;;;;;9.52;3.45;;;;;;;;;;5036026;28;20379;-89
2021/05/08 07:38:23;;;;;;;11.10;3.67;;;;;;;;;;5036753;28;20449;-89
2021/05/08 07:40:51;;;;;;;12.23;3.65;;;;;;;;;;5035985;28;20446;-86
2021/05/08 07:43:18;;;;;;;8.70;3.50;;;;;;;;;;5036254;28;20389;-86
2021/05/08 07:45:44;;;;;;;12.27;3.70;;;;;;;;;;5036890;28;20394;-89
2021/05/08 07:48:10;;;;;;;9.38;3.45;;;;;;;;;;5036200;28;20389;-85
2021/05/08 07:50:37;;;;;;;9.40;3.47;;;;;;;;;;5037439;28;20378;-87
2021/05/08 07:53:03;;;;;;;11.20;3.70;;;;;;;;;;5036056;28;20456;-88
2021/05/08 07:55:29;;;;;;;8.68;3.45;;;;;;;;;;5036166;28;20392;-85
2021/05/08 07:57:55;;;;;;;11.73;3.40;;;;;;;;;;5035233;28;20443;-88
2021/05/08 08:00:22;;;;;;;9.70;3.17;;;;;;;;;;5035364;28;20946;-89
2021/05/08 08:02:51;;;;;;;10.70;3.75;;;;;;;;;;5035944;28;20409;-85
2021/05/08 08:05:18;;;;;;;7.30;2.95;;;;;;;;;;5036498;28;20396;-85
2021/05/08 08:07:44;;;;;;;10.43;3.22;;;;;;;;;;5036003;28;20475;-87
2021/05/08 08:10:10;;;;;;;6.95;3.00;;;;;;;;;;5035751;28;20385;-89
2021/05/08 08:12:38;;;;;;;8.73;3.53;;;;;;;;;;5035428;28;20440;-91
2021/05/08 08:15:05;;;;;;;7.60;3.97;;;;;;;;;;5037315;28;20864;-90
2021/05/08 08:17:32;;;;;;;7.63;3.25;;;;;;;;;;5033991;28;20373;-88
2021/05/08 08:19:58;;;;;;;8.25;3.45;;;;;;;;;;5034277;28;20397;-86
2021/05/08 08:22:24;;;;;;;6.43;3.20;;;;;;;;;;5035708;28;20857;-86
2021/05/08 08:24:50;;;;;;;6.93;3.00;;;;;;;;;;5035583;28;20741;-86
2021/05/08 08:27:16;;;;;;;6.75;3.10;;;;;;;;;;5036834;28;20361;-88
2021/05/08 08:29:42;;;;;;;8.40;3.22;;;;;;;;;;5035595;28;20372;-89
2021/05/08 08:32:08;;;;;;;8.00;3.30;;;;;;;;;;5035738;28;20472;-87
2021/05/08 08:34:34;;;;;;;6.72;3.08;;;;;;;;;;5036076;28;20972;-89
2021/05/08 08:37:01;;;;;;;6.95;3.40;;;;;;;;;;5035920;28;20881;-88
2021/05/08 08:39:27;;;;;;;7.75;3.38;;;;;;;;;;5034905;28;20713;-87
2021/05/08 08:41:53;;;;;;;7.80;3.28;;;;;;;;;;5034775;28;20410;-91
2021/05/08 08:44:19;;;;;;;6.18;2.85;;;;;;;;;;5035870;28;20372;-89
2021/05/08 08:46:46;;;;;;;7.90;3.20;;;;;;;;;;5035422;28;20879;-90
2021/05/08 08:49:13;;;;;;;6.45;3.13;;;;;;;;;;5032380;28;20836;-90
2021/05/08 08:51:39;;;;;;;9.40;3.22;;;;;;;;;;5028320;28;20475;-87
2021/05/08 08:54:06;;;;;;;8.10;3.42;;;;;;;;;;5027355;28;20385;-86
2021/05/08 08:56:39;;;;;;;7.03;3.37;;;;;;;;;;5028110;28;20438;-88
2021/05/08 08:59:12;;;;;;;5.07;3.08;;;;;;;;;;5029035;28;20382;-82
2021/05/08 09:01:38;;;;;;;8.15;3.50;;;;;;;;;;5009544;28;20371;-86
2021/05/08 09:04:04;;;;;;;8.00;3.70;;;;;;;;;;5008960;28;20462;-86
2021/05/08 09:06:31;;;;;;;7.15;3.70;;;;;;;;;;5027731;28;20428;-89
2021/05/08 09:08:57;;;;;;;6.93;3.58;;;;;;;;;;5027364;28;20393;-84
2021/05/08 09:11:24;;;;;;;7.38;3.08;;;;;;;;;;5027496;28;20394;-85
2021/05/08 09:14:10;;;;;;;6.68;3.40;;;;;;;;;;5026555;28;20915;-87
2021/05/08 09:16:36;;;;;;;5.53;3.00;;;;;;;;;;5026952;28;20867;-88
2021/05/08 09:19:18;;;;;;;5.75;3.17;;;;;;;;;;5027468;28;20392;-88
2021/05/08 09:21:44;;;;;;;5.90;3.03;;;;;;;;;;5026576;28;20440;-90
2021/05/08 09:24:10;;;;;;;5.25;2.90;;;;;;;;;;5028513;28;20871;-91
2021/05/08 09:26:37;;;;;;;5.25;3.10;;;;;;;;;;5028760;28;21108;-90
2021/05/08 09:29:04;;;;;;;7.68;3.33;;;;;;;;;;5028146;28;20369;-88
2021/05/08 09:31:30;;;;;;;5.43;3.13;;;;;;;;;;5020692;28;20883;-92
2021/05/08 09:33:56;;;;;;;4.93;3.00;;;;;;;;;;5024247;28;20432;-94
2021/05/08 09:36:22;;;;;;;5.57;3.08;;;;;;;;;;5024853;28;20417;-89
2021/05/08 09:38:48;;;;;;;6.18;3.10;;;;;;;;;;5032357;28;20366;-92
2021/05/08 09:41:19;;;;;;;7.93;3.08;;;;;;;;;;5030716;28;20723;-91
2021/05/08 09:43:45;;;;;;;6.55;2.95;;;;;;;;;;5030539;28;20397;-91
2021/05/08 09:46:25;;;;;;;5.93;2.97;;;;;;;;;;5033051;28;20401;-92
2021/05/08 09:49:09;;;;;;;5.50;2.78;;;;;;;;;;5031415;28;20389;-91
2021/05/08 09:51:35;;;;;;;6.35;2.63;;;;;;;;;;5030475;28;20886;-89
2021/05/08 09:54:01;;;;;;;5.15;2.72;;;;;;;;;;5031518;28;20389;-87
2021/05/08 09:56:40;;;;;;;6.75;3.47;;;;;;;;;;5019423;28;20433;-90
2021/05/08 09:59:26;;;;;;;5.15;3.10;;;;;;;;;;5028248;28;20381;-91
2021/05/08 10:02:04;;;;;;;5.85;3.25;;;;;;;;;;5019887;28;20445;-92
2021/05/08 10:04:30;;;;;;;4.85;3.20;;;;;;;;;;5019514;28;20395;-89
2021/05/08 10:07:16;;;;;;;5.20;2.85;;;;;;;;;;5020755;28;20763;-90
2021/05/08 10:09:46;;;;;;;5.05;2.90;;;;;;;;;;5026795;28;20422;-87
2021/05/08 10:12:20;;;;;;;6.27;2.70;;;;;;;;;;5030854;28;20559;-88
2021/05/08 10:14:46;;;;;;;4.68;3.13;;;;;;;;;;5029155;28;20374;-88
2021/05/08 10:17:13;;;;;;;7.47;3.27;;;;;;;;;;5026678;28;20388;-92
2021/05/08 10:19:40;;;;;;;5.10;2.88;;;;;;;;;;5021493;28;20880;-88
2021/05/08 10:22:08;;;;;;;5.05;3.28;;;;;;;;;;5031819;28;20407;-88
2021/05/08 10:24:34;;;;;;;6.57;3.23;;;;;;;;;;5029774;28;20420;-87
2021/05/08 10:27:01;;;;;;;4.72;2.40;;;;;;;;;;5031438;28;20906;-90
2021/05/08 10:29:28;;;;;;;5.63;2.80;;;;;;;;;;5031119;28;20906;-84
2021/05/08 10:31:55;;;;;;;4.93;3.00;;;;;;;;;;5030493;28;20409;-90
2021/05/08 10:34:32;;;;;;;5.32;3.20;;;;;;;;;;5016169;28;20749;-89
2021/05/08 10:37:09;;;;;;;5.38;3.08;;;;;;;;;;5035387;28;20387;-87
2021/05/08 10:39:48;;;;;;;5.05;3.20;;;;;;;;;;5032747;28;20380;-91
2021/05/08 10:42:34;;;;;;;4.13;3.00;;;;;;;;;;5030811;28;20385;-88
2021/05/08 10:45:08;;;;;;;4.13;3.13;;;;;;;;;;5020185;28;20382;-87
2021/05/08 10:47:52;;;;;;;4.63;2.77;;;;;;;;;;5030310;28;20385;-88
2021/05/08 10:50:29;;;;;;;7.78;3.78;;;;;;;;;;5034527;28;20381;-90
2021/05/08 10:53:01;;;;;;;5.28;3.15;;;;;;;;;;5012794;28;20416;-90
2021/05/08 10:55:29;;;;;;;5.97;3.13;;;;;;;;;;5010767;28;20386;-88
2021/05/08 10:58:14;;;;;;;5.13;3.10;;;;;;;;;;5028095;28;20405;-90
2021/05/08 11:00:47;;;;;;;4.78;2.90;;;;;;;;;;5030990;28;20794;-91
2021/05/08 11:03:14;;;;;;;5.43;3.65;;;;;;;;;;5029621;28;21226;-91
2021/05/08 11:05:51;;;;;;;6.23;3.40;;;;;;;;;;5029655;28;20451;-90
2021/05/08 11:08:26;;;;;;;5.65;3.60;;;;;;;;;;5018533;28;20397;-90
2021/05/08 11:11:08;;;;;;;4.72;3.10;;;;;;;;;;5015661;28;20462;-89
2021/05/08 11:13:45;;;;;;;5.27;3.13;;;;;;;;;;5012882;28;20425;-90
2021/05/08 11:16:16;;;;;;;5.15;2.95;;;;;;;;;;5017243;28;20476;-89
2021/05/08 11:18:44;;;;;;;4.70;2.83;;;;;;;;;;5018545;28;20418;-90
2021/05/08 11:21:14;;;;;;;5.03;2.97;;;;;;;;;;5018099;28;20417;-93
2021/05/08 11:23:43;;;;;;;4.70;2.70;;;;;;;;;;5018592;28;20479;-89
2021/05/08 11:28:58;;;;;;;4.07;3.05;;;;;;;;;;5022384;28;20472;-89
2021/05/08 11:31:28;;;;;;;7.13;3.50;;;;;;;;;;5019007;28;20394;-90
2021/05/08 11:34:05;;;;;;;4.47;2.83;;;;;;;;;;5016884;28;20419;-89
2021/05/08 11:36:31;;;;;;;6.57;3.20;;;;;;;;;;5016824;28;20393;-89
2021/05/08 11:39:10;;;;;;;5.38;3.40;;;;;;;;;;5018751;28;20387;-89
2021/05/08 11:41:36;;;;;;;5.35;3.78;;;;;;;;;;5019608;28;20397;-89
2021/05/08 11:44:04;;;;;;;4.70;3.05;;;;;;;;;;5020072;28;20715;-88
2021/05/08 11:46:32;;;;;;;7.40;3.40;;;;;;;;;;5018701;28;20384;-89
2021/05/08 11:48:58;;;;;;;4.50;3.17;;;;;;;;;;5019808;28;20377;-88
2021/05/08 11:51:24;;;;;;;6.15;3.67;;;;;;;;;;5017520;28;20830;-89
2021/05/08 11:54:07;;;;;;;4.40;2.83;;;;;;;;;;5013603;28;20407;-88
2021/05/08 11:56:33;;;;;;;4.38;3.20;;;;;;;;;;5009625;28;20971;-89
2021/05/08 11:59:01;;;;;;;7.93;3.50;;;;;;;;;;5028458;28;20910;-87
2021/05/08 12:01:29;;;;;;;4.50;3.13;;;;;;;;;;5028062;28;21032;-85
2021/05/08 12:03:59;;;;;;;40.88;7.18;;;;;;;;;;5028322;28;20393;-88
2021/05/08 12:06:27;;;;;;;12.07;3.83;;;;;;;;;;5028131;28;20572;-88
2021/05/08 12:08:54;;;;;;;9.32;3.63;;;;;;;;;;5030045;28;20381;-89
2021/05/08 12:11:20;;;;;;;41.45;6.70;;;;;;;;;;5029392;28;20389;-89
2021/05/08 12:13:46;;;;;;;5.20;2.92;;;;;;;;;;5028188;28;20533;-87
2021/05/08 12:16:13;;;;;;;6.32;3.15;;;;;;;;;;5029648;28;20392;-89
2021/05/08 12:18:39;;;;;;;6.13;3.27;;;;;;;;;;5027544;28;20469;-88
2021/05/08 12:21:06;;;;;;;4.78;3.03;;;;;;;;;;5029266;28;20377;-90
2021/05/08 12:23:35;;;;;;;6.22;3.60;;;;;;;;;;5028048;28;20465;-89
2021/05/08 12:26:11;;;;;;;3.45;2.65;;;;;;;;;;5029821;28;20373;-88
2021/05/08 12:28:39;;;;;;;3.92;2.75;;;;;;;;;;5029764;28;20961;-89
2021/05/08 12:31:23;;;;;;;3.20;2.28;;;;;;;;;;5029064;28;20385;-87
2021/05/08 12:33:53;;;;;;;4.28;2.85;;;;;;;;;;5027191;28;20412;-86
2021/05/08 12:36:21;;;;;;;4.15;3.00;;;;;;;;;;5022208;28;20461;-89
2021/05/08 12:38:47;;;;;;;3.90;3.05;;;;;;;;;;5028284;28;20390;-91
2021/05/08 12:41:27;;;;;;;4.00;2.73;;;;;;;;;;5025381;28;20871;-89
2021/05/08 12:44:07;;;;;;;4.03;2.73;;;;;;;;;;5020411;28;20383;-86
2021/05/08 12:46:52;;;;;;;4.25;2.83;;;;;;;;;;5016812;28;20391;-91
2021/05/08 12:49:20;;;;;;;4.55;2.95;;;;;;;;;;5018130;28;20408;-87
2021/05/08 12:51:46;;;;;;;5.50;3.65;;;;;;;;;;5016874;28;20378;-87
2021/05/08 12:54:19;;;;;;;4.93;3.30;;;;;;;;;;5018725;28;20452;-88
2021/05/08 12:56:45;;;;;;;4.43;2.80;;;;;;;;;;5019055;28;20932;-86
2021/05/08 12:59:34;;;;;;;4.68;3.45;;;;;;;;;;5014398;28;20411;-87
2021/05/08 13:02:21;;;;;;;3.88;2.90;;;;;;;;;;5011593;28;20391;-91
2021/05/08 13:04:48;;;;;;;4.65;2.80;;;;;;;;;;5019360;28;20394;-88
2021/05/08 13:07:32;;;;;;;4.93;3.17;;;;;;;;;;5022553;28;20400;-88
2021/05/08 13:10:17;;;;;;;4.03;3.17;;;;;;;;;;5022167;28;20483;-88
2021/05/08 13:12:43;;;;;;;5.18;3.10;;;;;;;;;;5022089;28;20413;-89
2021/05/08 13:15:10;;;;;;;4.45;2.72;;;;;;;;;;5019878;28;20384;-88
2021/05/08 13:17:36;;;;;;;3.83;3.42;;;;;;;;;;5021789;28;20402;-87
2021/05/08 13:20:03;;;;;;;4.68;3.22;;;;;;;;;;5021061;28;20385;-92
2021/05/08 13:22:31;;;;;;;4.65;3.47;;;;;;;;;;5023143;28;20863;-85
2021/05/08 13:24:57;;;;;;;4.60;3.33;;;;;;;;;;5030279;28;20378;-86
2021/05/08 13:27:23;;;;;;;4.57;3.65;;;;;;;;;;5032681;28;20386;-86
2021/05/08 13:29:49;;;;;;;4.38;3.45;;;;;;;;;;5031173;28;20508;-86
2021/05/08 13:32:15;;;;;;;5.37;3.50;;;;;;;;;;5032157;28;20496;-86
2021/05/08 13:34:41;;;;;;;6.03;3.83;;;;;;;;;;5033440;28;20392;-89
2021/05/08 13:37:07;;;;;;;4.65;3.88;;;;;;;;;;5028205;28;20480;-86
2021/05/08 13:39:33;;;;;;;3.85;3.35;;;;;;;;;;5019813;28;20475;-88
2021/05/08 13:41:59;;;;;;;5.32;3.47;;;;;;;;;;5020929;28;20460;-89
2021/05/08 13:44:25;;;;;;;5.35;3.25;;;;;;;;;;5018879;28;20375;-92
2021/05/08 13:46:51;;;;;;;4.30;3.40;;;;;;;;;;5020529;28;20372;-88
2021/05/08 13:49:17;;;;;;;6.15;3.30;;;;;;;;;;5024214;28;20911;-91
2021/05/08 13:51:44;;;;;;;4.55;3.20;;;;;;;;;;5021700;28;20387;-87
2021/05/08 13:54:10;;;;;;;4.65;2.92;;;;;;;;;;5022148;28;20381;-92
2021/05/08 13:56:36;;;;;;;4.10;3.10;;;;;;;;;;5022166;28;20398;-88
2021/05/08 13:59:02;;;;;;;5.65;3.30;;;;;;;;;;5017409;28;20468;-87
2021/05/08 14:01:30;;;;;;;3.70;2.92;;;;;;;;;;5024421;28;20494;-83
2021/05/08 14:03:56;;;;;;;4.28;3.50;;;;;;;;;;5021045;28;20436;-86
2021/05/08 14:06:22;;;;;;;4.78;3.08;;;;;;;;;;5026102;28;20751;-86
2021/05/08 14:08:48;;;;;;;5.85;3.20;;;;;;;;;;5026473;28;20391;-89
2021/05/08 14:11:14;;;;;;;4.03;3.35;;;;;;;;;;5022320;28;20393;-88
2021/05/08 14:13:40;;;;;;;4.78;3.40;;;;;;;;;;5018080;28;20803;-84
2021/05/08 14:16:06;;;;;;;5.15;3.60;;;;;;;;;;5022925;28;20378;-88
2021/05/08 14:18:32;;;;;;;4.15;3.40;;;;;;;;;;5022529;28;20968;-85
2021/05/08 14:20:58;;;;;;;6.10;3.60;;;;;;;;;;5020044;28;20370;-83
2021/05/08 14:23:24;;;;;;;5.80;3.53;;;;;;;;;;5021493;28;20693;-86
2021/05/08 14:25:50;;;;;;;4.20;3.20;;;;;;;;;;5019339;28;20399;-84
2021/05/08 14:28:16;;;;;;;4.15;3.05;;;;;;;;;;5020098;28;20390;-83
2021/05/08 14:30:42;;;;;;;5.88;3.67;;;;;;;;;;5019728;28;20736;-85
2021/05/08 14:33:08;;;;;;;5.47;3.25;;;;;;;;;;5020441;28;20967;-85
2021/05/08 14:35:34;;;;;;;6.53;4.30;;;;;;;;;;5019820;28;20462;-81
2021/05/08 14:38:01;;;;;;;6.15;3.50;;;;;;;;;;5020822;28;20378;-82
2021/05/08 14:40:28;;;;;;;5.50;3.47;;;;;;;;;;5019568;28;20378;-83
2021/05/08 14:42:55;;;;;;;5.82;3.65;;;;;;;;;;5021700;28;20366;-87
2021/05/08 14:45:21;;;;;;;4.53;3.90;;;;;;;;;;5021642;28;20382;-82